Time;durP1;ratioP1;P1;durP2;ratioP2;P2;SDS_P1;SDS_P2;PMS_P1;PMS_P2;Temp;Humidity;BMP_temperature;BMP_pressure;BME280_temperature;BME280_humidity;BME280_pressure;Samples;Min_cycle;Max_cycle;Signal;HPM_P1;HPM_P2
2024/02/10 00:00:26;;;;;;;;;;;;;;;-144.99;100.00;52558.16;5060045;28;19932;-71
2024/02/10 00:02:54;;;;;;;;;;;;;;;-144.99;100.00;52576.50;5049507;22;19926;-71
2024/02/10 00:05:21;;;;;;;;;;;;;;;-144.99;100.00;52541.84;5012746;28;19936;-71
2024/02/10 00:07:52;;;;;;;;;;;;;;;-144.99;100.00;52574.47;5014974;28;20028;-73
2024/02/10 00:10:21;;;;;;;;;;;;;;;-144.99;100.00;52547.97;5014136;28;19929;-71
2024/02/10 00:12:47;;;;;;;;;;;;;;;-144.99;100.00;52554.09;5009316;28;19937;-71
2024/02/10 00:15:14;;;;;;;;;;;;;;;-144.99;100.00;52552.03;5009892;28;20413;-71
2024/02/10 00:17:41;;;;;;;;;;;;;;;-144.99;100.00;52554.09;5000511;28;19926;-71
2024/02/10 00:20:15;;;;;;;;;;;;;;;-144.99;100.00;52529.63;4999574;28;20017;-73
2024/02/10 00:22:43;;;;;;;;;;;;;;;-144.99;100.00;52517.41;5007155;28;19985;-71
2024/02/10 00:25:10;;;;;;;;;;;;;;;-144.99;100.00;52541.84;5002351;28;20024;-74
2024/02/10 00:27:40;;;;;;;;;;;;;;;-144.99;100.00;52576.50;5009461;28;20057;-71
2024/02/10 00:30:08;;;;;;;;;;;;;;;-144.99;100.00;52558.16;5002374;28;20133;-71
2024/02/10 00:32:37;;;;;;;;;;;;;;;-144.99;100.00;52574.47;5006533;28;20368;-71
2024/02/10 00:35:04;;;;;;;;;;;;;;;-144.99;100.00;52590.78;5001992;28;19934;-72
2024/02/10 00:37:30;;;;;;;;;;;;;;;-144.99;100.00;52574.47;5004624;28;20380;-73
2024/02/10 00:39:57;;;;;;;;;;;;;;;-144.99;100.00;52509.25;5007504;28;20379;-73
2024/02/10 00:42:27;;;;;;;;;;;;;;;-144.99;100.00;52570.38;5010499;28;20035;-72
2024/02/10 00:44:56;;;;;;;;;;;;;;;-144.99;100.00;52554.09;5002148;28;20402;-73
2024/02/10 00:47:22;;;;;;;;;;;;;;;-144.99;100.00;52578.53;5004470;28;19945;-73
2024/02/10 00:49:49;;;;;;;;;;;;;;;-144.99;100.00;52574.47;5003525;28;19929;-73
2024/02/10 00:52:18;;;;;;;;;;;;;;;-144.99;100.00;52550.00;5009137;28;19992;-72
2024/02/10 00:54:46;;;;;;;;;;;;;;;-144.99;100.00;52568.34;5008739;28;19925;-73
2024/02/10 00:57:12;;;;;;;;;;;;;;;-144.99;100.00;52552.03;5009060;28;19960;-72
2024/02/10 00:59:41;;;;;;;;;;;;;;;-144.99;100.00;52566.31;4991565;28;20031;-72
2024/02/10 01:02:09;;;;;;;;;;;;;;;-144.99;100.00;52558.16;5006792;28;19980;-70
2024/02/10 01:04:35;;;;;;;;;;;;;;;-144.99;100.00;52562.25;5004051;28;20395;-71
2024/02/10 01:07:02;;;;;;;;;;;;;;;-144.99;100.00;52574.47;4997902;28;20000;-72
2024/02/10 01:09:29;;;;;;;;;;;;;;;-144.99;100.00;52570.38;4997844;28;19925;-72
2024/02/10 01:11:56;;;;;;;;;;;;;;;-144.99;100.00;52598.94;5008899;28;20342;-72
2024/02/10 01:14:24;;;;;;;;;;;;;;;-144.99;100.00;52578.53;5011190;28;20303;-73
2024/02/10 01:16:53;;;;;;;;;;;;;;;-144.99;100.00;52558.16;5008891;28;20256;-71
2024/02/10 01:19:21;;;;;;;;;;;;;;;-144.99;100.00;52554.09;5007333;28;19925;-72
2024/02/10 01:21:47;;;;;;;;;;;;;;;-144.99;100.00;52570.38;5008554;28;19930;-72
2024/02/10 01:24:14;;;;;;;;;;;;;;;-144.99;100.00;52558.16;5005760;28;19925;-72
2024/02/10 01:26:41;;;;;;;;;;;;;;;-144.99;100.00;52566.31;5008526;28;19926;-72
2024/02/10 01:29:09;;;;;;;;;;;;;;;-144.99;100.00;52537.78;5009447;28;20013;-72
2024/02/10 01:31:35;;;;;;;;;;;;;;;-144.99;100.00;52552.03;5008407;28;19926;-72
2024/02/10 01:34:02;;;;;;;;;;;;;;;-144.99;100.00;52541.84;5001734;28;19933;-72
2024/02/10 01:36:33;;;;;;;;;;;;;;;-144.99;100.00;52562.25;5008181;28;19929;-72
2024/02/10 01:39:00;;;;;;;;;;;;;;;-144.99;100.00;52554.09;5007917;28;19926;-71
2024/02/10 01:41:28;;;;;;;;;;;;;;;-144.99;100.00;52545.94;5007912;28;19930;-71
2024/02/10 01:43:54;;;;;;;;;;;;;;;-144.99;100.00;52578.53;5007843;28;19926;-73
2024/02/10 01:46:22;;;;;;;;;;;;;;;-144.99;100.00;52586.69;5008045;28;19933;-73
2024/02/10 01:48:49;;;;;;;;;;;;;;;-144.99;100.00;52564.28;4982462;28;20489;-73
2024/02/10 01:51:16;;;;;;;;;;;;;;;-144.99;100.00;52547.97;5007638;28;19972;-72
2024/02/10 01:53:44;;;;;;;;;;;;;;;-144.99;100.00;52574.47;5005959;28;20013;-73
2024/02/10 01:56:15;;;;;;;;;;;;;;;-144.99;100.00;52547.97;4993714;28;19956;-73
2024/02/10 01:58:44;;;;;;;;;;;;;;;-144.99;100.00;52521.47;4996372;28;19926;-73
2024/02/10 02:01:11;;;;;;;;;;;;;;;-144.99;100.00;52525.56;5006129;28;19938;-71
2024/02/10 02:03:42;;;;;;;;;;;;;;;-144.99;100.00;52570.38;4993057;28;19977;-71
2024/02/10 02:06:11;;;;;;;;;;;;;;;-144.99;100.00;52550.00;5003648;28;19925;-71
2024/02/10 02:08:37;;;;;;;;;;;;;;;-144.99;100.00;52574.47;4994346;28;19992;-72
2024/02/10 02:11:05;;;;;;;;;;;;;;;-144.99;100.00;52513.31;4996319;28;19925;-72
2024/02/10 02:13:32;;;;;;;;;;;;;;;-144.99;100.00;52564.28;5007493;28;19933;-72
2024/02/10 02:16:00;;;;;;;;;;;;;;;-144.99;100.00;52558.16;5006354;28;20169;-73
2024/02/10 02:18:26;;;;;;;;;;;;;;;-144.99;100.00;52568.34;5006063;28;19997;-72
2024/02/10 02:20:53;;;;;;;;;;;;;;;-144.99;100.00;52566.31;5009162;28;20323;-72
2024/02/10 02:23:21;;;;;;;;;;;;;;;-144.99;100.00;52541.84;5002563;28;20298;-72
2024/02/10 02:25:49;;;;;;;;;;;;;;;-144.99;100.00;52570.38;4998911;28;19976;-72
2024/02/10 02:28:16;;;;;;;;;;;;;;;-144.99;100.00;52562.25;5007534;28;19930;-73
2024/02/10 02:30:42;;;;;;;;;;;;;;;-144.99;100.00;52550.00;5006304;28;19947;-72
2024/02/10 02:33:10;;;;;;;;;;;;;;;-144.99;100.00;52558.16;5007214;28;20166;-72
2024/02/10 02:35:38;;;;;;;;;;;;;;;-144.99;100.00;52578.53;4999440;28;20355;-72
2024/02/10 02:38:05;;;;;;;;;;;;;;;-144.99;100.00;52541.84;4999389;28;20028;-72
2024/02/10 02:40:33;;;;;;;;;;;;;;;-144.99;100.00;52554.09;4999405;28;19999;-73
2024/02/10 02:43:02;;;;;;;;;;;;;;;-144.99;100.00;52592.81;5005335;28;19988;-74
2024/02/10 02:45:29;;;;;;;;;;;;;;;-144.99;100.00;52562.25;5006462;28;19972;-72
2024/02/10 02:48:01;;;;;;;;;;;;;;;-144.99;100.00;52521.47;5003837;28;19926;-72
2024/02/10 02:50:28;;;;;;;;;;;;;;;-144.99;100.00;52539.81;5012379;28;20024;-71
2024/02/10 02:52:57;;;;;;;;;;;;;;;-144.99;100.00;52545.94;5011123;28;20251;-71
2024/02/10 02:55:24;;;;;;;;;;;;;;;-144.99;100.00;52543.91;5005079;28;20423;-71
2024/02/10 02:57:52;;;;;;;;;;;;;;;-144.99;100.00;52562.25;5004407;28;20071;-72
2024/02/10 03:00:18;;;;;;;;;;;;;;;-144.99;100.00;52537.78;5011402;28;19969;-72
2024/02/10 03:02:46;;;;;;;;;;;;;;;-144.99;100.00;52529.63;5002624;28;19961;-72
2024/02/10 03:05:13;;;;;;;;;;;;;;;-144.99;100.00;52554.09;5002954;28;19930;-71
2024/02/10 03:07:42;;;;;;;;;;;;;;;-144.99;100.00;52541.84;5000577;28;19925;-71
2024/02/10 03:10:09;;;;;;;;;;;;;;;-144.99;100.00;52586.69;5010835;28;20063;-70
2024/02/10 03:12:36;;;;;;;;;;;;;;;-144.99;100.00;52562.25;5011040;28;20332;-72
2024/02/10 03:15:04;;;;;;;;;;;;;;;-144.99;100.00;52533.69;5010827;28;20344;-71
2024/02/10 03:17:31;;;;;;;;;;;;;;;-144.99;100.00;52590.78;5011115;28;19932;-70
2024/02/10 03:19:58;;;;;;;;;;;;;;;-144.99;100.00;52562.25;5010841;28;20039;-72
2024/02/10 03:22:24;;;;;;;;;;;;;;;-144.99;100.00;52564.28;5010573;28;19973;-71
2024/02/10 03:24:53;;;;;;;;;;;;;;;-144.99;100.00;52513.31;5001632;28;20016;-71
2024/02/10 03:27:20;;;;;;;;;;;;;;;-144.99;100.00;52556.13;5006731;28;20446;-71
2024/02/10 03:29:46;;;;;;;;;;;;;;;-144.99;100.00;52554.09;5011395;28;20364;-72
2024/02/10 03:32:14;;;;;;;;;;;;;;;-144.99;100.00;52529.63;5006463;28;20020;-73
2024/02/10 03:34:41;;;;;;;;;;;;;;;-144.99;100.00;52568.34;4992484;28;19932;-72
2024/02/10 03:37:09;;;;;;;;;;;;;;;-144.99;100.00;52543.91;4992005;28;19963;-71
2024/02/10 03:39:36;;;;;;;;;;;;;;;-144.99;100.00;52590.78;5010274;28;19926;-71
2024/02/10 03:42:04;;;;;;;;;;;;;;;-144.99;100.00;52578.53;5009786;28;19926;-72
2024/02/10 03:44:30;;;;;;;;;;;;;;;-144.99;100.00;52554.09;5000058;28;19926;-73
2024/02/10 03:47:00;;;;;;;;;;;;;;;-144.99;100.00;52543.91;5007506;28;20024;-72
2024/02/10 03:49:28;;;;;;;;;;;;;;;-144.99;100.00;52545.94;5004182;28;19925;-71
2024/02/10 03:51:55;;;;;;;;;;;;;;;-144.99;100.00;52566.31;5009722;28;19930;-73
2024/02/10 03:54:22;;;;;;;;;;;;;;;-144.99;100.00;52554.09;5003140;28;19961;-71
2024/02/10 03:56:49;;;;;;;;;;;;;;;-144.99;100.00;52541.84;5008002;28;19937;-71
2024/02/10 03:59:16;;;;;;;;;;;;;;;-144.99;100.00;52545.94;5005475;28;20400;-71
2024/02/10 04:01:43;;;;;;;;;;;;;;;-144.99;100.00;52584.66;5002278;28;20056;-71
2024/02/10 04:04:09;;;;;;;;;;;;;;;-144.99;100.00;52523.50;5009798;28;19932;-70
2024/02/10 04:06:39;;;;;;;;;;;;;;;-144.99;100.00;52580.59;5010323;28;19999;-71
2024/02/10 04:09:06;;;;;;;;;;;;;;;-144.99;100.00;52564.28;5009568;28;20436;-71
2024/02/10 04:11:33;;;;;;;;;;;;;;;-144.99;100.00;52578.53;5009500;28;19925;-72
2024/02/10 04:14:00;;;;;;;;;;;;;;;-144.99;100.00;52529.63;5009598;28;19976;-72
2024/02/10 04:16:26;;;;;;;;;;;;;;;-144.99;100.00;52550.00;5001434;28;20334;-72
2024/02/10 04:18:54;;;;;;;;;;;;;;;-144.99;100.00;52545.94;5009160;28;19994;-71
2024/02/10 04:21:20;;;;;;;;;;;;;;;-144.99;100.00;52574.47;5009342;28;20366;-71
2024/02/10 04:23:51;;;;;;;;;;;;;;;-144.99;100.00;52582.63;5005914;28;20269;-72
2024/02/10 04:26:18;;;;;;;;;;;;;;;-144.99;100.00;52562.25;5008242;28;20363;-71
2024/02/10 04:28:44;;;;;;;;;;;;;;;-144.99;100.00;52550.00;5008190;28;19991;-71
2024/02/10 04:31:13;;;;;;;;;;;;;;;-144.99;100.00;52543.91;5007972;28;20316;-72
2024/02/10 04:33:42;;;;;;;;;;;;;;;-144.99;100.00;52594.84;5009482;28;19983;-71
2024/02/10 04:36:11;;;;;;;;;;;;;;;-144.99;100.00;52578.53;5009245;28;19961;-72
2024/02/10 04:38:37;;;;;;;;;;;;;;;-144.99;100.00;52541.84;5008881;28;20295;-72
2024/02/10 04:41:05;;;;;;;;;;;;;;;-144.99;100.00;52558.16;4998248;28;20024;-71
2024/02/10 04:43:32;;;;;;;;;;;;;;;-144.99;100.00;52554.09;5004391;28;19984;-71
2024/02/10 04:45:58;;;;;;;;;;;;;;;-144.99;100.00;52554.09;5006234;28;19960;-71
2024/02/10 04:48:25;;;;;;;;;;;;;;;-144.99;100.00;52562.25;5005241;28;19973;-70
2024/02/10 04:50:56;;;;;;;;;;;;;;;-144.99;100.00;52529.63;5001136;28;19951;-72
2024/02/10 04:53:25;;;;;;;;;;;;;;;-144.99;100.00;52552.03;5008075;28;20001;-72
2024/02/10 04:55:51;;;;;;;;;;;;;;;-144.99;100.00;52558.16;5008675;28;19929;-71
2024/02/10 04:58:21;;;;;;;;;;;;;;;-144.99;100.00;52558.16;5000620;28;19964;-71
2024/02/10 05:00:48;;;;;;;;;;;;;;;-144.99;100.00;52505.16;5007006;28;20542;-71
2024/02/10 05:03:14;;;;;;;;;;;;;;;-144.99;100.00;52560.19;5008749;28;20022;-71
2024/02/10 05:05:41;;;;;;;;;;;;;;;-144.99;100.00;52590.78;5009731;28;20024;-70
2024/02/10 05:08:12;;;;;;;;;;;;;;;-144.99;100.00;52574.47;5008604;28;19936;-72
2024/02/10 05:10:40;;;;;;;;;;;;;;;-144.99;100.00;52562.25;5001840;28;19976;-71
2024/02/10 05:13:06;;;;;;;;;;;;;;;-144.99;100.00;52545.94;5000433;28;19930;-71
2024/02/10 05:15:36;;;;;;;;;;;;;;;-144.99;100.00;52554.09;4979431;28;20322;-71
2024/02/10 05:18:05;;;;;;;;;;;;;;;-144.99;100.00;52541.84;4999273;28;20008;-71
2024/02/10 05:20:32;;;;;;;;;;;;;;;-144.99;100.00;52566.31;5006266;28;19987;-73
2024/02/10 05:22:58;;;;;;;;;;;;;;;-144.99;100.00;52562.25;5007890;28;19972;-71
2024/02/10 05:25:27;;;;;;;;;;;;;;;-144.99;100.00;52550.00;5009037;28;20183;-71
2024/02/10 05:28:00;;;;;;;;;;;;;;;-144.99;100.00;52552.03;5008387;28;19940;-71
2024/02/10 05:30:26;;;;;;;;;;;;;;;-144.99;100.00;52529.63;5007221;28;19925;-70
2024/02/10 05:32:55;;;;;;;;;;;;;;;-144.99;100.00;52574.47;5006903;28;19956;-71
2024/02/10 05:35:22;;;;;;;;;;;;;;;-144.99;100.00;52501.09;5004900;28;19952;-70
2024/02/10 05:37:49;;;;;;;;;;;;;;;-144.99;100.00;52533.69;5007606;28;19929;-72
2024/02/10 05:40:15;;;;;;;;;;;;;;;-144.99;100.00;52525.56;5008516;28;20627;-70
2024/02/10 05:42:43;;;;;;;;;;;;;;;-144.99;100.00;52586.69;5004539;28;19957;-70
2024/02/10 05:45:10;;;;;;;;;;;;;;;-144.99;100.00;52533.69;5007879;28;20398;-72
2024/02/10 05:47:39;;;;;;;;;;;;;;;-144.99;100.00;52566.31;5002292;28;20026;-70
2024/02/10 05:50:15;;;;;;;;;;;;;;;-144.99;100.00;52564.28;5007817;28;19991;-70
2024/02/10 05:52:43;;;;;;;;;;;;;;;-144.99;100.00;52566.31;5008334;28;19925;-69
2024/02/10 05:55:12;;;;;;;;;;;;;;;-144.99;100.00;52545.94;5006537;28;20020;-69
2024/02/10 05:57:38;;;;;;;;;;;;;;;-144.99;100.00;52554.09;5004626;28;20016;-70
2024/02/10 06:00:09;;;;;;;;;;;;;;;-144.99;100.00;52582.63;5008043;28;19941;-70
2024/02/10 06:02:38;;;;;;;;;;;;;;;-144.99;100.00;52511.28;5003824;28;20159;-70
2024/02/10 06:05:05;;;;;;;;;;;;;;;-144.99;100.00;52570.38;5032103;22;19943;-69
2024/02/10 06:07:35;;;;;;;;;;;;;;;-144.99;100.00;52590.78;5063558;28;19963;-69
2024/02/10 06:10:01;;;;;;;;;;;;;;;-144.99;100.00;52537.78;5060120;28;19928;-70
2024/02/10 06:12:28;;;;;;;;;;;;;;;-144.99;100.00;52562.25;5074508;28;19936;-71
2024/02/10 06:14:54;;;;;;;;;;;;;;;-144.99;100.00;52543.91;5048987;28;19925;-69
2024/02/10 06:17:23;;;;;;;;;;;;;;;-144.99;100.00;52525.56;5075740;28;20392;-70
2024/02/10 06:19:50;;;;;;;;;;;;;;;-144.99;100.00;52554.09;5067928;28;19944;-69
2024/02/10 06:22:18;;;;;;;;;;;;;;;-144.99;100.00;52554.09;5066879;28;19924;-70
2024/02/10 06:24:45;;;;;;;;;;;;;;;-144.99;100.00;52578.53;5069339;28;19929;-69
2024/02/10 06:27:12;;;;;;;;;;;;;;;-144.99;100.00;52527.59;5064485;28;20064;-70
2024/02/10 06:29:39;;;;;;;;;;;;;;;-144.99;100.00;52578.53;5053490;28;19995;-70
2024/02/10 06:32:06;;;;;;;;;;;;;;;-144.99;100.00;52574.47;5059548;28;20333;-69
2024/02/10 06:34:34;;;;;;;;;;;;;;;-144.99;100.00;52562.25;5052695;28;20008;-69
2024/02/10 06:37:02;;;;;;;;;;;;;;;-144.99;100.00;52550.00;5064449;28;19978;-68
2024/02/10 06:39:28;;;;;;;;;;;;;;;-144.99;100.00;52554.09;5058268;28;19996;-69
2024/02/10 06:41:56;;;;;;;;;;;;;;;-144.99;100.00;52574.47;5057689;28;20439;-69
2024/02/10 06:44:24;;;;;;;;;;;;;;;-144.99;100.00;52560.19;5042313;28;19960;-69
2024/02/10 06:46:50;;;;;;;;;;;;;;;-144.99;100.00;52541.84;5049252;28;20326;-69
2024/02/10 06:49:20;;;;;;;;;;;;;;;-144.99;100.00;52550.00;5055056;28;20305;-69
2024/02/10 06:51:47;;;;;;;;;;;;;;;-144.99;100.00;52576.50;5051479;28;19948;-69
2024/02/10 06:54:14;;;;;;;;;;;;;;;-144.99;100.00;52541.84;5047283;28;19960;-70
2024/02/10 06:56:40;;;;;;;;;;;;;;;-144.99;100.00;52570.38;5054235;28;20023;-70
2024/02/10 06:59:08;;;;;;;;;;;;;;;-144.99;100.00;52576.50;5055655;28;20132;-71
2024/02/10 07:01:35;;;;;;;;;;;;;;;-144.99;100.00;52586.69;5054565;28;19928;-71
2024/02/10 07:04:02;;;;;;;;;;;;;;;-144.99;100.00;52545.94;5056685;28;19935;-72
2024/02/10 07:06:31;;;;;;;;;;;;;;;-144.99;100.00;52537.78;5051244;28;19929;-71
2024/02/10 07:09:00;;;;;;;;;;;;;;;-144.99;100.00;52574.47;5066505;28;19934;-73
2024/02/10 07:11:27;;;;;;;;;;;;;;;-144.99;100.00;52586.69;5061334;28;20280;-72
2024/02/10 07:13:53;;;;;;;;;;;;;;;-144.99;100.00;52574.47;5051487;28;20401;-71
2024/02/10 07:16:21;;;;;;;;;;;;;;;-144.99;100.00;52566.31;5051402;28;19933;-70
2024/02/10 07:18:48;;;;;;;;;;;;;;;-144.99;100.00;52545.94;5051511;28;19924;-69
2024/02/10 07:21:16;;;;;;;;;;;;;;;-144.99;100.00;52556.13;5044870;28;20016;-69
2024/02/10 07:23:44;;;;;;;;;;;;;;;-144.99;100.00;52560.19;5050111;28;19963;-69
2024/02/10 07:26:10;;;;;;;;;;;;;;;-144.99;100.00;52525.56;5050338;28;20432;-69
2024/02/10 07:28:37;;;;;;;;;;;;;;;-144.99;100.00;52574.47;5044880;28;19994;-70
2024/02/10 07:31:03;;;;;;;;;;;;;;;-144.99;100.00;52566.31;5043809;28;20379;-70
2024/02/10 07:33:32;;;;;;;;;;;;;;;-144.99;100.00;52552.03;5051225;28;19944;-70
2024/02/10 07:36:00;;;;;;;;;;;;;;;-144.99;100.00;52582.63;5053613;28;20397;-70
2024/02/10 07:38:27;;;;;;;;;;;;;;;-144.99;100.00;52517.41;5056518;28;19928;-70
2024/02/10 07:40:54;;;;;;;;;;;;;;;-144.99;100.00;52558.16;5058698;28;19929;-70
2024/02/10 07:43:20;;;;;;;;;;;;;;;-144.99;100.00;52570.38;5052246;28;19979;-70
2024/02/10 07:45:48;;;;;;;;;;;;;;;-144.99;100.00;52509.25;5057418;28;19979;-70
2024/02/10 07:48:17;;;;;;;;;;;;;;;-144.99;100.00;52545.94;5046884;28;19929;-70
2024/02/10 07:50:45;;;;;;;;;;;;;;;-144.99;100.00;52570.38;5055762;28;19924;-70
2024/02/10 07:53:12;;;;;;;;;;;;;;;-144.99;100.00;52547.97;5046076;28;19925;-68
2024/02/10 07:55:42;;;;;;;;;;;;;;;-144.99;100.00;52582.63;5065496;28;20273;-69
2024/02/10 07:58:12;;;;;;;;;;;;;;;-144.99;100.00;52562.25;5054594;28;19932;-70
2024/02/10 08:00:40;;;;;;;;;;;;;;;-144.99;100.00;52533.69;5061830;28;19924;-70
2024/02/10 08:03:06;;;;;;;;;;;;;;;-144.99;100.00;52545.94;5050548;28;20036;-70
2024/02/10 08:05:33;;;;;;;;;;;;;;;-144.99;100.00;52623.38;5054958;28;19982;-70
2024/02/10 08:08:03;;;;;;;;;;;;;;;-144.99;100.00;52554.09;5057478;28;19933;-68
2024/02/10 08:10:29;;;;;;;;;;;;;;;-144.99;100.00;52552.03;5054462;28;20023;-69
2024/02/10 08:12:56;;;;;;;;;;;;;;;-144.99;100.00;52537.78;5054499;28;19925;-69
2024/02/10 08:15:23;;;;;;;;;;;;;;;-144.99;100.00;52545.94;5049956;28;19932;-70
2024/02/10 08:17:50;;;;;;;;;;;;;;;-144.99;100.00;52545.94;5052275;28;19928;-69
2024/02/10 08:20:19;;;;;;;;;;;;;;;-144.99;100.00;52533.69;5051067;28;20124;-70
2024/02/10 08:22:48;;;;;;;;;;;;;;;-144.99;100.00;52562.25;5050544;28;19928;-69
2024/02/10 08:25:18;;;;;;;;;;;;;;;-144.99;100.00;52598.94;5059076;28;19978;-70
2024/02/10 08:27:45;;;;;;;;;;;;;;;-144.99;100.00;52550.00;5052007;28;19931;-68
2024/02/10 08:30:18;;;;;;;;;;;;;;;-144.99;100.00;52537.78;5045078;28;20415;-69
2024/02/10 08:32:45;;;;;;;;;;;;;;;-144.99;100.00;52590.78;5051650;28;19928;-71
2024/02/10 08:35:12;;;;;;;;;;;;;;;-144.99;100.00;52582.63;5052939;28;19925;-72
2024/02/10 08:37:39;;;;;;;;;;;;;;;-144.99;100.00;52582.63;5062322;28;20441;-70
2024/02/10 08:40:09;;;;;;;;;;;;;;;-144.99;100.00;52541.84;5052720;28;19938;-71
2024/02/10 08:42:38;;;;;;;;;;;;;;;-144.99;100.00;52562.25;5050811;28;19929;-70
2024/02/10 08:45:05;;;;;;;;;;;;;;;-144.99;100.00;52556.13;5056192;28;20027;-72
2024/02/10 08:47:31;;;;;;;;;;;;;;;-144.99;100.00;52566.31;5043706;28;20358;-71
2024/02/10 08:49:58;;;;;;;;;;;;;;;-144.99;100.00;52566.31;5053425;28;20457;-70
2024/02/10 08:52:24;;;;;;;;;;;;;;;-144.99;100.00;52541.84;5050923;28;19924;-72
2024/02/10 08:54:51;;;;;;;;;;;;;;;-144.99;100.00;52578.53;5060212;28;20011;-71
2024/02/10 08:57:19;;;;;;;;;;;;;;;-144.99;100.00;52554.09;5056189;28;19940;-72
2024/02/10 08:59:48;;;;;;;;;;;;;;;-144.99;100.00;52521.47;5055455;28;19924;-73
2024/02/10 09:02:16;;;;;;;;;;;;;;;-144.99;100.00;52550.00;5043904;28;19931;-72
2024/02/10 09:04:44;;;;;;;;;;;;;;;-144.99;100.00;52550.00;5054311;28;19931;-70
2024/02/10 09:07:10;;;;;;;;;;;;;;;-144.99;100.00;52509.25;5061608;28;19925;-74
2024/02/10 09:09:37;;;;;;;;;;;;;;;-144.99;100.00;52566.31;5063504;28;19972;-70
2024/02/10 09:12:03;;;;;;;;;;;;;;;-144.99;100.00;52525.56;5053364;28;19932;-72
2024/02/10 09:14:32;;;;;;;;;;;;;;;-144.99;100.00;52594.84;5056121;28;20185;-71
2024/02/10 09:17:00;;;;;;;;;;;;;;;-144.99;100.00;52568.34;5051991;28;19929;-69
2024/02/10 09:19:27;;;;;;;;;;;;;;;-144.99;100.00;52537.78;5051560;28;19928;-69
2024/02/10 09:21:58;;;;;;;;;;;;;;;-144.99;100.00;52547.97;5053231;28;19928;-70
2024/02/10 09:24:26;;;;;;;;;;;;;;;-144.99;100.00;52578.53;5051977;28;19925;-69
2024/02/10 09:26:52;;;;;;;;;;;;;;;-144.99;100.00;52554.09;5046552;28;19932;-71
2024/02/10 09:29:19;;;;;;;;;;;;;;;-144.99;100.00;52505.16;5047282;28;20375;-69
2024/02/10 09:31:45;;;;;;;;;;;;;;;-144.99;100.00;52533.69;5045580;28;20037;-69
2024/02/10 09:34:13;;;;;;;;;;;;;;;-144.99;100.00;52550.00;5046184;28;20444;-69
2024/02/10 09:36:42;;;;;;;;;;;;;;;-144.99;100.00;52550.00;5049374;28;19990;-69
2024/02/10 09:39:09;;;;;;;;;;;;;;;-144.99;100.00;52578.53;5051732;28;19972;-69
2024/02/10 09:41:35;;;;;;;;;;;;;;;-144.99;100.00;52558.16;5049334;28;19924;-71
2024/02/10 09:44:03;;;;;;;;;;;;;;;-144.99;100.00;52545.94;5053757;28;20280;-69
2024/02/10 09:46:35;;;;;;;;;;;;;;;-144.99;100.00;52521.47;5060133;28;19940;-71
2024/02/10 09:49:06;;;;;;;;;;;;;;;-144.99;100.00;52550.00;5042321;28;19936;-70
2024/02/10 09:51:34;;;;;;;;;;;;;;;-144.99;100.00;52562.25;5055965;28;19925;-70
2024/02/10 09:54:01;;;;;;;;;;;;;;;-144.99;100.00;52509.25;5045065;28;19931;-71
2024/02/10 09:56:28;;;;;;;;;;;;;;;-144.99;100.00;52560.19;5052584;28;19932;-70
2024/02/10 09:58:55;;;;;;;;;;;;;;;-144.99;100.00;52541.84;5050004;28;19979;-70
2024/02/10 10:01:21;;;;;;;;;;;;;;;-144.99;100.00;52552.03;5043740;28;19924;-70
2024/02/10 10:03:48;;;;;;;;;;;;;;;-144.99;100.00;52525.56;5049011;28;19925;-70
2024/02/10 10:06:14;;;;;;;;;;;;;;;-144.99;100.00;52566.31;5060179;28;20062;-71
2024/02/10 10:08:43;;;;;;;;;;;;;;;-144.99;100.00;52537.78;5056632;28;19925;-73
2024/02/10 10:11:09;;;;;;;;;;;;;;;-144.99;100.00;52537.78;5042872;28;19929;-67
2024/02/10 10:13:37;;;;;;;;;;;;;;;-144.99;100.00;52517.41;5048101;28;19979;-69
2024/02/10 10:16:05;;;;;;;;;;;;;;;-144.99;100.00;52529.63;5049585;28;19929;-69
2024/02/10 10:18:32;;;;;;;;;;;;;;;-144.99;100.00;52515.34;5042401;28;20298;-69
2024/02/10 10:20:59;;;;;;;;;;;;;;;-144.99;100.00;52562.25;5048748;28;19929;-72
2024/02/10 10:23:31;;;;;;;;;;;;;;;-144.99;100.00;52556.13;5051395;28;20385;-73
2024/02/10 10:25:59;;;;;;;;;;;;;;;-144.99;100.00;52570.38;5056105;28;20427;-73
2024/02/10 10:28:25;;;;;;;;;;;;;;;-144.99;100.00;52527.59;5057380;28;19924;-74
2024/02/10 10:30:52;;;;;;;;;;;;;;;-144.99;100.00;52513.31;5049493;28;20007;-68
2024/02/10 10:33:20;;;;;;;;;;;;;;;-144.99;100.00;52521.47;5047718;28;19925;-70
2024/02/10 10:35:47;;;;;;;;;;;;;;;-144.99;100.00;52527.59;5040278;28;19979;-70
2024/02/10 10:38:14;;;;;;;;;;;;;;;-144.99;100.00;52566.31;5058767;28;20374;-69
2024/02/10 10:40:42;;;;;;;;;;;;;;;-144.99;100.00;52550.00;5045086;28;20374;-69
2024/02/10 10:43:11;;;;;;;;;;;;;;;-144.99;100.00;52552.03;5048072;28;19953;-70
2024/02/10 10:45:38;;;;;;;;;;;;;;;-144.99;100.00;52558.16;5046446;28;20005;-70
2024/02/10 10:48:05;;;;;;;;;;;;;;;-144.99;100.00;52513.31;5046360;28;20051;-70
2024/02/10 10:50:32;;;;;;;;;;;;;;;-144.99;100.00;52572.44;5046395;28;19929;-71
2024/02/10 10:53:05;;;;;;;;;;;;;;;-144.99;100.00;52517.41;5050914;28;19974;-70
2024/02/10 10:55:33;;;;;;;;;;;;;;;-144.99;100.00;52492.94;5037874;28;19929;-70
2024/02/10 10:58:04;;;;;;;;;;;;;;;-144.99;100.00;52541.84;5040077;28;20005;-69
2024/02/10 11:00:34;;;;;;;;;;;;;;;-144.99;100.00;52570.38;5039441;28;19937;-69
2024/02/10 11:03:02;;;;;;;;;;;;;;;-144.99;100.00;52541.84;5042464;28;19941;-69
2024/02/10 11:05:36;;;;;;;;;;;;;;;-144.99;100.00;52515.34;5036301;28;20038;-69
2024/02/10 11:08:03;;;;;;;;;;;;;;;-144.99;100.00;52464.41;5045694;28;19924;-71
2024/02/10 11:10:36;;;;;;;;;;;;;;;-144.99;100.00;52529.63;5047126;28;20003;-70
2024/02/10 11:13:04;;;;;;;;;;;;;;;-144.99;100.00;52545.94;5045394;28;20019;-69
2024/02/10 11:15:32;;;;;;;;;;;;;;;-144.99;100.00;52550.00;5045580;28;19945;-71
2024/02/10 11:18:00;;;;;;;;;;;;;;;-144.99;100.00;52507.19;5053035;28;19947;-71
2024/02/10 11:20:34;;;;;;;;;;;;;;;-144.99;100.00;52492.94;5056149;28;19967;-71
2024/02/10 11:23:10;;;;;;;;;;;;;;;-144.99;100.00;52501.09;5053043;28;19924;-71
2024/02/10 11:25:37;;;;;;;;;;;;;;;-144.99;100.00;52513.31;5059721;28;19936;-71
2024/02/10 11:28:04;;;;;;;;;;;;;;;-144.99;100.00;52525.56;5056921;28;20294;-71
2024/02/10 11:30:32;;;;;;;;;;;;;;;-144.99;100.00;52509.25;5051080;28;19971;-72
2024/02/10 11:32:59;;;;;;;;;;;;;;;-144.99;100.00;52550.00;5049038;28;19964;-70
2024/02/10 11:35:25;;;;;;;;;;;;;;;-144.99;100.00;52537.78;5041432;28;20017;-73
2024/02/10 11:37:53;;;;;;;;;;;;;;;-144.99;100.00;52545.94;5041800;28;19976;-71
2024/02/10 11:40:19;;;;;;;;;;;;;;;-144.99;100.00;52521.47;5045588;28;20370;-73
2024/02/10 11:42:46;;;;;;;;;;;;;;;-144.99;100.00;52525.56;5046434;28;20195;-71
2024/02/10 11:45:12;;;;;;;;;;;;;;;-144.99;100.00;52537.78;5047114;28;19933;-73
2024/02/10 11:47:42;;;;;;;;;;;;;;;-144.99;100.00;52525.56;5051882;28;20348;-72
2024/02/10 11:50:09;;;;;;;;;;;;;;;-144.99;100.00;52472.56;5051649;28;19925;-71
2024/02/10 11:52:37;;;;;;;;;;;;;;;-144.99;100.00;52525.56;5039721;28;19965;-73
2024/02/10 11:55:04;;;;;;;;;;;;;;;-144.99;100.00;52558.16;5048962;28;19925;-69
2024/02/10 11:57:31;;;;;;;;;;;;;;;-144.99;100.00;52545.94;5054769;28;20327;-71
2024/02/10 11:59:57;;;;;;;;;;;;;;;-144.99;100.00;52533.69;5059839;28;20009;-70
2024/02/10 12:02:24;;;;;;;;;;;;;;;-144.99;100.00;52509.25;5046201;28;19929;-71
2024/02/10 12:04:52;;;;;;;;;;;;;;;-144.99;100.00;52503.13;5032896;28;19929;-70
2024/02/10 12:07:18;;;;;;;;;;;;;;;-144.99;100.00;52517.41;5081790;22;20369;-69
2024/02/10 12:09:45;;;;;;;;;;;;;;;-144.99;100.00;52521.47;5089697;28;20020;-71
2024/02/10 12:12:13;;;;;;;;;;;;;;;-144.99;100.00;52541.84;5078148;28;20294;-72
2024/02/10 12:14:40;;;;;;;;;;;;;;;-144.99;100.00;52537.78;5070024;28;19928;-71
2024/02/10 12:17:07;;;;;;;;;;;;;;;-144.99;100.00;52460.31;5069250;28;20386;-71
2024/02/10 12:19:36;;;;;;;;;;;;;;;-144.99;100.00;52574.47;5072874;28;19932;-71